Time;durP1;ratioP1;P1;durP2;ratioP2;P2;SDS_P1;SDS_P2;PMS_P1;PMS_P2;Temp;Humidity;BMP_temperature;BMP_pressure;BME280_temperature;BME280_humidity;BME280_pressure;Samples;Min_cycle;Max_cycle;Signal;HPM_P1;HPM_P2
2023/03/19 00:01:56;;;;;;;49.70;33.72;;;7.00;99.90;;;;;;6258253;22;20007;-95
2023/03/19 00:04:24;;;;;;;50.63;32.50;;;7.00;99.90;;;;;;6267161;22;20011;-93
2023/03/19 00:06:52;;;;;;;50.22;33.90;;;7.10;99.90;;;;;;6279503;22;20090;-92
2023/03/19 00:09:28;;;;;;;57.83;37.58;;;7.10;99.90;;;;;;6252811;22;20344;-94
2023/03/19 00:11:55;;;;;;;65.93;38.10;;;6.80;99.90;;;;;;6278019;22;20007;-94
2023/03/19 00:14:22;;;;;;;56.85;36.38;;;6.60;99.90;;;;;;6253062;22;20011;-92
2023/03/19 00:16:49;;;;;;;55.83;36.38;;;6.50;99.90;;;;;;6278526;22;20329;-94
2023/03/19 00:19:16;;;;;;;55.50;37.65;;;6.50;99.90;;;;;;6252668;22;20488;-93
2023/03/19 00:21:43;;;;;;;55.65;35.42;;;6.50;99.90;;;;;;6278105;22;20004;-94
2023/03/19 00:24:09;;;;;;;55.70;35.85;;;6.40;99.90;;;;;;6252722;22;20438;-95
2023/03/19 00:26:36;;;;;;;54.13;35.85;;;6.40;99.90;;;;;;6252808;22;20086;-94
2023/03/19 00:29:04;;;;;;;51.55;34.65;;;6.40;99.90;;;;;;6277889;22;20007;-93
2023/03/19 00:31:31;;;;;;;51.08;33.85;;;6.40;99.90;;;;;;6277966;22;20051;-93
2023/03/19 00:33:59;;;;;;;52.58;32.42;;;6.20;99.90;;;;;;6278574;22;20019;-94
2023/03/19 00:36:27;;;;;;;46.78;32.33;;;6.20;99.90;;;;;;6279526;22;20072;-94
2023/03/19 00:38:54;;;;;;;54.25;33.25;;;6.30;99.90;;;;;;6278114;22;20026;-94
2023/03/19 00:41:20;;;;;;;47.70;32.78;;;6.30;99.90;;;;;;6277923;22;20007;-93
2023/03/19 00:43:51;;;;;;;48.28;30.52;;;6.30;99.90;;;;;;6252554;22;19999;-93
2023/03/19 00:46:17;;;;;;;45.30;31.58;;;6.20;99.90;;;;;;6277855;22;20012;-93
2023/03/19 00:48:44;;;;;;;42.65;31.85;;;6.20;99.90;;;;;;6252631;22;20011;-94
2023/03/19 00:51:10;;;;;;;45.65;31.98;;;6.10;99.90;;;;;;6252540;22;20007;-95
2023/03/19 00:53:43;;;;;;;50.90;32.78;;;6.10;99.90;;;;;;6252514;22;20445;-94
2023/03/19 00:56:12;;;;;;;47.90;32.92;;;6.00;99.90;;;;;;6251934;22;20008;-94
2023/03/19 00:58:41;;;;;;;46.15;32.85;;;6.00;99.90;;;;;;6272348;22;20035;-94
2023/03/19 01:01:10;;;;;;;45.33;31.70;;;5.90;99.90;;;;;;6247333;23;20319;-93
2023/03/19 01:03:36;;;;;;;44.83;31.77;;;5.90;99.90;;;;;;6246530;23;20004;-94
2023/03/19 01:06:05;;;;;;;46.25;31.33;;;5.90;99.90;;;;;;6247364;22;20004;-95
2023/03/19 01:08:32;;;;;;;49.78;32.60;;;5.90;99.90;;;;;;6247003;22;20422;-94
2023/03/19 01:11:14;;;;;;;46.58;31.23;;;5.80;99.90;;;;;;6247127;22;20012;-94
2023/03/19 01:13:44;;;;;;;44.75;30.85;;;5.80;99.90;;;;;;6247452;22;20012;-94
2023/03/19 01:16:20;;;;;;;48.53;31.73;;;5.80;99.90;;;;;;6247387;22;20012;-93
2023/03/19 01:18:46;;;;;;;44.15;30.73;;;5.70;99.90;;;;;;6247547;22;20005;-94
2023/03/19 01:21:20;;;;;;;44.25;30.15;;;5.60;99.90;;;;;;6247000;23;20090;-95
2023/03/19 01:23:50;;;;;;;39.50;29.00;;;5.70;99.90;;;;;;6247492;22;20008;-93
2023/03/19 01:26:17;;;;;;;40.97;29.13;;;5.70;99.90;;;;;;6222305;22;20008;-93
2023/03/19 01:28:44;;;;;;;43.85;30.10;;;5.70;99.90;;;;;;6246821;22;20040;-93
2023/03/19 01:31:11;;;;;;;42.70;29.10;;;5.70;99.90;;;;;;6246991;22;20015;-92
2023/03/19 01:33:56;;;;;;;43.33;29.38;;;5.60;99.90;;;;;;6247151;23;20027;-93
2023/03/19 01:36:33;;;;;;;45.92;29.35;;;5.40;99.90;;;;;;6249097;22;20008;-94
2023/03/19 01:39:05;;;;;;;43.45;30.52;;;5.30;99.90;;;;;;6247819;22;20047;-95
2023/03/19 01:41:31;;;;;;;49.38;33.00;;;5.30;99.90;;;;;;6247046;23;20165;-93
2023/03/19 01:44:30;;;;;;;56.13;34.70;;;5.30;99.90;;;;;;6249562;22;20012;-93
2023/03/19 01:47:33;;;;;;;51.45;33.08;;;5.30;99.90;;;;;;6251191;22;20065;-94
2023/03/19 01:50:26;;;;;;;55.92;33.53;;;5.50;99.90;;;;;;6246978;23;20019;-95
2023/03/19 01:53:12;;;;;;;49.90;32.58;;;5.50;99.90;;;;;;6250910;22;20046;-93
2023/03/19 01:56:10;;;;;;;48.05;32.63;;;5.50;99.90;;;;;;6248833;23;20100;-95
2023/03/19 01:58:45;;;;;;;48.78;31.35;;;5.50;99.90;;;;;;6270900;22;20012;-95
2023/03/19 02:01:20;;;;;;;49.50;31.30;;;5.40;99.90;;;;;;6247301;23;20012;-94
2023/03/19 02:03:51;;;;;;;44.47;30.80;;;5.30;99.90;;;;;;6247860;22;20012;-93
2023/03/19 02:06:23;;;;;;;45.67;29.55;;;5.30;99.90;;;;;;6248687;22;20004;-94
2023/03/19 02:08:51;;;;;;;43.92;30.90;;;5.30;99.90;;;;;;6254132;22;20012;-94
2023/03/19 02:11:19;;;;;;;48.03;29.70;;;5.30;99.90;;;;;;6252265;23;20441;-95
2023/03/19 02:13:46;;;;;;;42.25;29.40;;;5.30;99.90;;;;;;6246521;23;20016;-93
2023/03/19 02:16:14;;;;;;;45.17;29.63;;;5.30;99.90;;;;;;6246389;23;20004;-93
2023/03/19 02:18:42;;;;;;;46.70;29.25;;;5.20;99.90;;;;;;6246625;22;20047;-93
2023/03/19 02:21:12;;;;;;;46.60;28.98;;;5.20;99.90;;;;;;6246341;23;20012;-93
2023/03/19 02:24:10;;;;;;;42.58;29.10;;;5.20;99.90;;;;;;6246562;22;20094;-95
2023/03/19 02:26:46;;;;;;;42.45;26.55;;;5.20;99.90;;;;;;6246339;23;20015;-93
2023/03/19 02:29:13;;;;;;;41.10;27.70;;;5.10;99.90;;;;;;6246424;23;20008;-93
2023/03/19 02:31:40;;;;;;;40.95;26.83;;;5.10;99.90;;;;;;6257249;22;20061;-93
2023/03/19 02:34:26;;;;;;;36.75;27.02;;;5.10;99.90;;;;;;6258956;22;20020;-95
2023/03/19 02:37:16;;;;;;;36.80;26.05;;;5.10;99.90;;;;;;6258287;22;20004;-94
2023/03/19 02:40:13;;;;;;;34.72;25.88;;;5.00;99.90;;;;;;6260504;22;20008;-93
2023/03/19 02:42:39;;;;;;;37.13;26.27;;;5.00;99.90;;;;;;6227356;23;20004;-94
2023/03/19 02:45:07;;;;;;;34.60;26.92;;;5.00;99.90;;;;;;6250845;22;20004;-93
2023/03/19 02:47:34;;;;;;;36.63;26.38;;;4.80;99.90;;;;;;6246128;22;20012;-93
2023/03/19 02:50:01;;;;;;;37.33;25.95;;;4.80;99.90;;;;;;6246507;22;20008;-93
2023/03/19 02:52:28;;;;;;;35.97;27.42;;;4.80;99.90;;;;;;6246096;23;20058;-93
2023/03/19 02:54:54;;;;;;;41.72;27.48;;;4.70;99.90;;;;;;6246018;22;20016;-93
2023/03/19 02:57:20;;;;;;;36.53;26.63;;;4.80;99.90;;;;;;6245660;22;20016;-93
2023/03/19 02:59:47;;;;;;;41.88;27.52;;;4.80;99.90;;;;;;6220886;23;20008;-94
2023/03/19 03:02:14;;;;;;;34.75;26.33;;;4.80;99.90;;;;;;6223845;23;20054;-93
2023/03/19 03:04:40;;;;;;;35.63;25.88;;;4.80;99.90;;;;;;6221084;23;20011;-93
2023/03/19 03:07:07;;;;;;;38.53;27.48;;;4.80;99.90;;;;;;6220643;23;20007;-93
2023/03/19 03:09:34;;;;;;;39.50;28.15;;;4.80;99.90;;;;;;6245924;22;20008;-94
2023/03/19 03:12:01;;;;;;;40.88;27.83;;;4.70;99.90;;;;;;6220755;23;20388;-93
2023/03/19 03:14:28;;;;;;;39.60;27.20;;;4.80;99.90;;;;;;6220823;23;20353;-92
2023/03/19 03:16:56;;;;;;;40.42;26.95;;;4.80;99.90;;;;;;6245654;23;20059;-94
2023/03/19 03:19:25;;;;;;;39.85;25.85;;;4.90;99.90;;;;;;6221801;23;20008;-94
2023/03/19 03:21:52;;;;;;;38.28;26.83;;;4.90;99.90;;;;;;6221075;23;20083;-93
2023/03/19 03:24:18;;;;;;;36.60;26.02;;;5.00;99.90;;;;;;6220990;23;20043;-93
2023/03/19 03:26:45;;;;;;;31.77;25.23;;;5.00;99.90;;;;;;6220314;23;20004;-94
2023/03/19 03:29:12;;;;;;;37.85;24.75;;;5.00;99.90;;;;;;6220401;23;20012;-94
2023/03/19 03:31:38;;;;;;;35.95;24.73;;;5.00;99.90;;;;;;6220350;23;20011;-94
2023/03/19 03:34:04;;;;;;;35.35;24.75;;;5.00;99.90;;;;;;6220428;23;20020;-94
2023/03/19 03:36:31;;;;;;;33.70;25.20;;;5.10;99.90;;;;;;6220707;23;20057;-94
2023/03/19 03:38:57;;;;;;;34.80;24.55;;;5.10;99.90;;;;;;6220601;23;20012;-92
2023/03/19 03:41:24;;;;;;;37.72;24.48;;;5.20;99.90;;;;;;6220600;23;20005;-93
2023/03/19 03:43:51;;;;;;;35.03;25.65;;;5.10;99.90;;;;;;6220569;23;20008;-93
2023/03/19 03:46:18;;;;;;;32.78;23.75;;;5.10;99.90;;;;;;6220314;23;20004;-93
2023/03/19 03:48:45;;;;;;;34.08;24.98;;;5.00;99.90;;;;;;6220298;23;20095;-94
2023/03/19 03:51:11;;;;;;;35.00;24.40;;;5.00;99.90;;;;;;6220599;23;20028;-93
2023/03/19 03:53:38;;;;;;;35.35;25.27;;;5.00;99.90;;;;;;6220626;23;20020;-93
2023/03/19 03:56:06;;;;;;;34.88;24.60;;;5.00;99.90;;;;;;6220716;23;20008;-93
2023/03/19 03:58:32;;;;;;;31.02;25.23;;;5.00;99.90;;;;;;6250781;22;20022;-95
2023/03/19 04:00:59;;;;;;;38.13;25.13;;;4.90;99.90;;;;;;6245578;22;20015;-94
2023/03/19 04:03:26;;;;;;;34.95;26.25;;;4.80;99.90;;;;;;6250785;22;20008;-94
2023/03/19 04:05:53;;;;;;;37.92;26.23;;;4.70;99.90;;;;;;6250594;22;20057;-94
2023/03/19 04:08:21;;;;;;;40.65;27.17;;;4.60;99.90;;;;;;6276484;22;20012;-92
2023/03/19 04:10:49;;;;;;;36.38;26.88;;;4.50;99.90;;;;;;6251527;22;20035;-94
2023/03/19 04:13:16;;;;;;;37.97;26.33;;;4.50;99.90;;;;;;6275898;22;20016;-94
2023/03/19 04:15:44;;;;;;;42.03;27.08;;;4.50;99.90;;;;;;6250679;22;20084;-93
2023/03/19 04:18:11;;;;;;;42.78;27.77;;;4.40;99.90;;;;;;6276005;22;20146;-94
2023/03/19 04:20:40;;;;;;;39.78;26.75;;;4.30;99.90;;;;;;6250637;22;20014;-93
2023/03/19 04:23:07;;;;;;;39.38;26.40;;;4.30;99.90;;;;;;6276225;22;20329;-94
2023/03/19 04:25:40;;;;;;;38.33;26.00;;;4.20;99.90;;;;;;6250785;22;20087;-94
2023/03/19 04:28:07;;;;;;;39.30;27.07;;;4.10;99.90;;;;;;6276113;22;20498;-94
2023/03/19 04:30:34;;;;;;;40.00;27.48;;;4.00;99.90;;;;;;6250710;22;20754;-95
2023/03/19 04:33:01;;;;;;;43.60;29.20;;;4.00;99.90;;;;;;6276163;22;20014;-92
2023/03/19 04:35:31;;;;;;;46.15;29.33;;;4.10;99.90;;;;;;6250585;22;20004;-93
2023/03/19 04:38:04;;;;;;;43.47;28.90;;;4.30;99.90;;;;;;6251446;22;20015;-93
2023/03/19 04:40:31;;;;;;;47.70;30.30;;;4.30;99.90;;;;;;6277451;22;20008;-93
2023/03/19 04:42:58;;;;;;;47.60;29.45;;;4.40;99.90;;;;;;6252175;22;20003;-92
2023/03/19 04:45:35;;;;;;;47.50;30.42;;;4.40;99.90;;;;;;6252654;22;20019;-94
2023/03/19 04:48:02;;;;;;;49.25;30.40;;;4.40;99.90;;;;;;6287355;22;20031;-93
2023/03/19 04:50:31;;;;;;;46.42;30.15;;;4.40;99.90;;;;;;6253644;22;20007;-93
2023/03/19 04:52:59;;;;;;;45.00;30.25;;;4.40;99.90;;;;;;6277289;22;20346;-93
2023/03/19 04:55:26;;;;;;;40.88;28.55;;;4.40;99.90;;;;;;6252647;22;20004;-95
2023/03/19 04:58:10;;;;;;;43.85;28.98;;;4.40;99.90;;;;;;6269261;22;20019;-93
2023/03/19 05:00:37;;;;;;;40.47;28.13;;;4.30;99.90;;;;;;6222365;23;20384;-93
2023/03/19 05:03:06;;;;;;;40.55;29.48;;;4.30;99.90;;;;;;6247424;22;20315;-94
2023/03/19 05:05:34;;;;;;;45.85;30.30;;;4.20;99.90;;;;;;6247347;22;20012;-93
2023/03/19 05:08:12;;;;;;;48.60;31.17;;;4.30;99.90;;;;;;6249248;22;20084;-91
2023/03/19 05:10:40;;;;;;;47.55;29.63;;;4.40;99.90;;;;;;6247055;22;20008;-91
2023/03/19 05:13:08;;;;;;;44.65;28.73;;;4.40;99.90;;;;;;6247545;22;20032;-90
2023/03/19 05:15:44;;;;;;;39.80;27.95;;;4.40;99.90;;;;;;6248813;22;20008;-93
2023/03/19 05:18:12;;;;;;;39.92;28.30;;;4.40;99.90;;;;;;6248469;22;20015;-93
2023/03/19 05:20:43;;;;;;;45.05;28.95;;;4.40;99.90;;;;;;6250272;22;20012;-93
2023/03/19 05:23:22;;;;;;;45.35;30.13;;;4.40;99.90;;;;;;6226654;23;20342;-93
2023/03/19 05:26:05;;;;;;;45.15;28.58;;;4.40;99.90;;;;;;6251792;22;20008;-93
2023/03/19 05:28:50;;;;;;;40.40;28.35;;;4.50;99.90;;;;;;6248303;23;20018;-93
2023/03/19 05:31:24;;;;;;;39.95;29.45;;;4.60;99.90;;;;;;6248183;22;20008;-93
2023/03/19 05:33:53;;;;;;;41.92;30.17;;;4.70;99.90;;;;;;6248664;22;20095;-94
2023/03/19 05:36:20;;;;;;;40.60;27.40;;;4.80;99.90;;;;;;6250477;22;20087;-92
2023/03/19 05:39:09;;;;;;;36.10;26.63;;;5.00;99.90;;;;;;6249057;23;20438;-92
2023/03/19 05:41:38;;;;;;;40.00;27.38;;;5.30;99.90;;;;;;6248773;22;20004;-95
2023/03/19 05:44:06;;;;;;;41.88;28.45;;;5.70;99.90;;;;;;6248459;22;20434;-95
2023/03/19 05:46:59;;;;;;;37.72;25.58;;;6.30;99.90;;;;;;6247758;23;20322;-94
2023/03/19 05:49:29;;;;;;;35.22;26.23;;;7.00;99.90;;;;;;6248097;22;20059;-94
2023/03/19 05:51:57;;;;;;;35.08;27.38;;;8.10;99.90;;;;;;6247551;22;20008;-94
2023/03/19 05:54:23;;;;;;;31.50;26.50;;;8.90;99.90;;;;;;6247448;22;20016;-94
2023/03/19 05:57:06;;;;;;;32.17;28.75;;;9.60;99.90;;;;;;6254910;22;20000;-94
2023/03/19 05:59:51;;;;;;;37.45;33.65;;;10.30;99.90;;;;;;6277956;22;20077;-95
2023/03/19 06:02:34;;;;;;;37.58;32.38;;;11.00;99.90;;;;;;6277630;22;20058;-93
2023/03/19 06:05:16;;;;;;;33.75;30.20;;;11.50;99.90;;;;;;6260870;22;20034;-95
2023/03/19 13:21:37;;;;;;;22.23;20.63;;;18.60;99.90;;;;;;6253927;22;20023;-94
2023/03/19 13:24:27;;;;;;;25.35;23.10;;;18.90;99.90;;;;;;6222066;23;20012;-93
2023/03/19 13:26:57;;;;;;;22.23;20.58;;;18.70;99.90;;;;;;6222042;23;20016;-93
2023/03/19 13:29:27;;;;;;;22.00;20.48;;;18.80;99.90;;;;;;6223026;23;20004;-93
2023/03/19 13:32:09;;;;;;;22.42;20.88;;;18.80;99.90;;;;;;6223625;23;20015;-94
2023/03/19 13:34:39;;;;;;;21.38;20.08;;;18.70;99.90;;;;;;6247662;22;20020;-94
2023/03/19 13:37:14;;;;;;;21.90;20.50;;;18.80;99.90;;;;;;6247372;23;20011;-92
2023/03/19 13:39:42;;;;;;;22.13;20.63;;;18.90;99.90;;;;;;6247475;23;20008;-93
2023/03/19 13:42:36;;;;;;;21.70;20.30;;;18.90;99.90;;;;;;6247160;23;20000;-92
2023/03/19 13:45:37;;;;;;;21.33;20.00;;;18.80;99.90;;;;;;6248050;23;20079;-93
2023/03/19 13:48:35;;;;;;;21.38;19.98;;;18.70;99.90;;;;;;6240096;23;20035;-93
2023/03/19 13:51:24;;;;;;;22.13;20.73;;;18.80;99.90;;;;;;6221055;23;20323;-92
2023/03/19 13:54:12;;;;;;;21.45;20.05;;;18.80;99.90;;;;;;6249765;22;20016;-93
2023/03/19 13:56:59;;;;;;;21.85;20.33;;;18.60;99.90;;;;;;6223226;23;20004;-93
2023/03/19 13:59:30;;;;;;;21.42;19.67;;;18.60;99.90;;;;;;6246869;23;20035;-93
2023/03/19 14:01:58;;;;;;;20.58;19.38;;;18.40;99.90;;;;;;6246930;23;20486;-92
2023/03/19 14:04:28;;;;;;;21.90;20.20;;;18.30;99.90;;;;;;6246521;22;20497;-93
2023/03/19 14:07:14;;;;;;;21.02;19.63;;;18.40;99.90;;;;;;6221631;23;20000;-92
2023/03/19 14:09:44;;;;;;;21.48;20.08;;;18.60;99.90;;;;;;6221246;23;20008;-93
2023/03/19 14:12:19;;;;;;;21.23;19.83;;;18.50;99.90;;;;;;6221301;23;20008;-95
2023/03/19 14:15:15;;;;;;;21.17;19.83;;;18.40;99.90;;;;;;6246329;23;20460;-93
2023/03/19 14:17:48;;;;;;;20.98;19.58;;;18.40;99.90;;;;;;6246993;23;20052;-94
2023/03/19 14:20:15;;;;;;;21.10;19.80;;;18.20;99.90;;;;;;6246496;23;20071;-93
2023/03/19 14:23:11;;;;;;;20.98;19.42;;;18.20;99.90;;;;;;6246065;22;20448;-92
2023/03/19 14:40:46;;;;;;;21.23;19.65;;;18.10;99.90;;;;;;6279967;22;20054;-93
2023/03/19 14:43:35;;;;;;;21.48;19.75;;;17.80;99.90;;;;;;6269914;22;20007;-92
2023/03/19 14:46:14;;;;;;;20.92;19.48;;;17.80;99.90;;;;;;6293725;22;20012;-93
2023/03/19 14:49:08;;;;;;;21.02;19.52;;;17.80;99.90;;;;;;6276721;22;20035;-93
2023/03/19 14:52:14;;;;;;;21.83;20.23;;;17.80;99.90;;;;;;6251354;22;20345;-93
2023/03/19 14:55:18;;;;;;;20.17;18.58;;;17.80;99.90;;;;;;6184952;23;20024;-94
2023/03/19 14:57:45;;;;;;;20.77;19.30;;;17.30;99.90;;;;;;6162212;23;20462;-92
2023/03/19 15:00:18;;;;;;;20.42;19.10;;;17.20;99.90;;;;;;6160773;23;20009;-94
2023/03/19 15:02:51;;;;;;;20.50;19.20;;;17.10;99.90;;;;;;6159931;23;20091;-94
2023/03/19 15:05:31;;;;;;;20.10;18.90;;;17.20;99.90;;;;;;6160069;23;20016;-93
2023/03/19 15:08:11;;;;;;;20.52;19.23;;;17.20;99.90;;;;;;6160016;23;20047;-95
2023/03/19 15:11:16;;;;;;;20.00;18.60;;;17.30;99.90;;;;;;6160664;23;20387;-91
2023/03/19 15:14:14;;;;;;;19.65;18.35;;;17.40;99.90;;;;;;6134763;23;20123;-92
2023/03/19 15:16:46;;;;;;;19.52;18.33;;;17.40;99.90;;;;;;6160516;23;20348;-93
2023/03/19 15:19:15;;;;;;;19.23;18.13;;;17.40;99.90;;;;;;6160165;23;20009;-93
2023/03/19 15:21:42;;;;;;;19.70;18.38;;;17.20;99.90;;;;;;6160198;23;20012;-91
2023/03/19 15:24:15;;;;;;;20.98;19.13;;;17.10;99.90;;;;;;6159603;23;20096;-91
2023/03/19 15:26:42;;;;;;;20.25;18.70;;;17.00;99.90;;;;;;6276572;22;20078;-92
2023/03/19 15:29:09;;;;;;;20.55;19.15;;;16.80;99.90;;;;;;6276474;22;20086;-93
2023/03/19 15:31:50;;;;;;;21.00;19.33;;;16.70;99.90;;;;;;6276669;22;20053;-92
2023/03/19 15:34:26;;;;;;;20.30;18.83;;;16.70;99.90;;;;;;6276317;22;20441;-92
2023/03/19 15:37:01;;;;;;;19.67;18.52;;;16.70;99.90;;;;;;6250899;22;20018;-93
2023/03/19 15:39:36;;;;;;;19.48;18.25;;;16.80;99.90;;;;;;6276247;22;20019;-92
2023/03/19 15:42:04;;;;;;;19.85;18.58;;;16.80;99.90;;;;;;6276548;22;20008;-93
2023/03/19 15:44:48;;;;;;;19.55;18.15;;;16.80;99.90;;;;;;6250886;22;20011;-92
2023/03/19 15:47:26;;;;;;;19.80;18.33;;;16.80;99.90;;;;;;6283101;22;20012;-91
2023/03/19 15:50:09;;;;;;;19.60;18.20;;;16.70;99.90;;;;;;6281683;22;20029;-94
2023/03/19 15:52:40;;;;;;;19.02;17.83;;;16.50;99.90;;;;;;6276529;22;20087;-93
2023/03/19 15:55:07;;;;;;;19.30;17.75;;;16.50;99.90;;;;;;6277298;22;20015;-93
2023/03/19 15:57:40;;;;;;;18.52;17.33;;;16.50;99.90;;;;;;6278102;22;20006;-92
2023/03/19 16:00:11;;;;;;;18.60;17.20;;;16.50;99.90;;;;;;6276517;22;20007;-91
2023/03/19 16:02:43;;;;;;;18.92;17.73;;;16.40;99.90;;;;;;6250761;22;20011;-91
2023/03/19 16:05:26;;;;;;;18.98;17.55;;;16.30;99.90;;;;;;6276192;22;20011;-92
2023/03/19 16:08:14;;;;;;;18.73;17.52;;;16.30;99.90;;;;;;6276586;22;20008;-92
2023/03/19 16:10:42;;;;;;;19.73;18.33;;;16.20;99.90;;;;;;6276608;22;20011;-93
2023/03/19 16:13:31;;;;;;;21.70;20.20;;;15.90;99.90;;;;;;6276334;22;20073;-92
2023/03/19 16:16:07;;;;;;;20.50;19.10;;;15.90;99.90;;;;;;6250873;22;20459;-92
2023/03/19 16:18:52;;;;;;;19.92;18.60;;;15.80;99.90;;;;;;6250764;22;20004;-94
2023/03/19 16:21:22;;;;;;;19.05;17.75;;;15.70;99.90;;;;;;6277295;22;20008;-91
2023/03/19 16:24:23;;;;;;;20.58;18.75;;;15.70;99.90;;;;;;6276107;22;20008;-91
2023/03/19 16:26:51;;;;;;;20.95;19.55;;;15.60;99.90;;;;;;6184623;23;20064;-92
2023/03/19 16:29:23;;;;;;;22.08;19.83;;;15.50;99.90;;;;;;6159807;23;20016;-93
2023/03/19 16:31:52;;;;;;;21.83;19.98;;;15.50;99.90;;;;;;6169147;23;20009;-91
2023/03/19 16:34:56;;;;;;;21.33;19.48;;;15.40;99.90;;;;;;6176726;23;20013;-91
2023/03/19 16:37:37;;;;;;;22.60;21.02;;;15.40;99.90;;;;;;6187620;23;20074;-81
2023/03/19 16:40:23;;;;;;;23.58;21.35;;;15.30;99.90;;;;;;6188141;23;20013;-87
2023/03/19 16:42:54;;;;;;;22.63;20.65;;;15.10;99.90;;;;;;6163169;23;20099;-82
2023/03/19 16:45:30;;;;;;;26.45;23.95;;;15.00;99.90;;;;;;6163644;23;20013;-83
2023/03/19 16:47:59;;;;;;;30.08;26.85;;;15.00;99.90;;;;;;6164153;23;20008;-89
2023/03/19 16:57:36;;;;;;;40.95;28.17;;;14.70;99.90;;;;;;6281552;22;20013;-94
2023/03/19 17:00:03;;;;;;;39.17;27.58;;;14.60;99.90;;;;;;6257702;22;20014;-92
2023/03/19 17:02:33;;;;;;;39.45;30.35;;;14.40;99.90;;;;;;6258061;22;20011;-93
2023/03/19 17:05:05;;;;;;;39.67;29.85;;;14.30;99.90;;;;;;6257989;22;20010;-93
2023/03/19 17:07:34;;;;;;;34.50;29.33;;;14.20;99.90;;;;;;6258301;22;20015;-94
2023/03/19 17:10:16;;;;;;;31.92;27.38;;;14.20;99.90;;;;;;6258469;22;20003;-92
2023/03/19 17:12:46;;;;;;;43.33;29.40;;;14.10;99.90;;;;;;6257722;22;20007;-93
2023/03/19 17:15:42;;;;;;;38.20;28.75;;;14.00;99.90;;;;;;6268054;22;20011;-92
2023/03/19 17:18:28;;;;;;;35.75;27.75;;;13.90;99.90;;;;;;6259081;22;20007;-94
2023/03/19 17:21:19;;;;;;;28.08;25.35;;;13.80;99.90;;;;;;6257752;22;20488;-93
2023/03/19 17:23:51;;;;;;;28.55;25.77;;;13.70;99.90;;;;;;6258270;22;20049;-92
2023/03/19 17:26:32;;;;;;;26.70;24.20;;;13.70;99.90;;;;;;6257609;22;20008;-93
2023/03/19 17:29:09;;;;;;;26.10;23.50;;;13.60;99.90;;;;;;6257843;22;20078;-93
2023/03/19 17:31:39;;;;;;;26.85;24.35;;;13.60;99.90;;;;;;6258444;22;20007;-94
2023/03/19 17:34:15;;;;;;;28.02;25.08;;;13.50;99.90;;;;;;6257240;22;20011;-94
2023/03/19 17:36:53;;;;;;;26.38;23.88;;;13.40;99.90;;;;;;6257617;22;20007;-93
2023/03/19 17:39:20;;;;;;;26.10;24.00;;;13.40;99.90;;;;;;6257315;22;20085;-93
2023/03/19 17:41:53;;;;;;;28.17;25.30;;;13.30;99.90;;;;;;6257905;22;20571;-94
2023/03/19 17:44:23;;;;;;;26.88;24.40;;;13.30;99.90;;;;;;6257798;22;20011;-94
2023/03/19 17:46:53;;;;;;;28.77;25.58;;;13.20;99.90;;;;;;6257717;22;20516;-92
2023/03/19 17:49:31;;;;;;;30.63;27.42;;;13.20;99.90;;;;;;6258088;22;20015;-92
2023/03/19 17:52:11;;;;;;;30.95;27.63;;;13.10;99.90;;;;;;6258592;22;20090;-93
2023/03/19 17:54:43;;;;;;;23.33;21.02;;;13.00;99.90;;;;;;6251658;22;20043;-94
2023/03/19 17:57:18;;;;;;;23.08;20.75;;;12.90;99.90;;;;;;6252976;22;20011;-93
2023/03/19 17:59:47;;;;;;;22.77;20.52;;;12.70;99.90;;;;;;6254138;22;20008;-92
2023/03/19 18:02:44;;;;;;;22.90;20.63;;;12.60;99.90;;;;;;6251983;22;20004;-93
2023/03/19 18:05:19;;;;;;;22.15;20.35;;;12.50;99.90;;;;;;6132481;23;20013;-92
2023/03/19 18:07:48;;;;;;;22.42;20.33;;;12.40;99.90;;;;;;6101722;23;20506;-90
2023/03/19 18:10:20;;;;;;;21.60;19.63;;;12.20;99.90;;;;;;6101912;23;20006;-89
2023/03/19 18:12:48;;;;;;;22.77;20.48;;;12.10;99.90;;;;;;6101742;23;20070;-91
2023/03/19 18:15:16;;;;;;;22.33;20.13;;;12.00;99.90;;;;;;6102026;23;20014;-91
2023/03/19 18:20:46;;;;;;;23.45;20.48;;;11.90;99.90;;;;;;6280065;22;20073;-93
2023/03/19 18:23:23;;;;;;;24.48;21.85;;;11.80;99.90;;;;;;6226986;22;20099;-93
2023/03/19 18:25:50;;;;;;;23.23;21.00;;;11.70;99.90;;;;;;6208467;23;20422;-93
2023/03/19 18:28:17;;;;;;;24.98;20.25;;;11.60;99.90;;;;;;6207219;23;20008;-91
2023/03/19 18:30:44;;;;;;;21.38;18.70;;;11.60;99.90;;;;;;6197109;23;20004;-92
2023/03/19 18:33:32;;;;;;;19.23;17.52;;;11.50;99.90;;;;;;6196327;23;20333;-94
2023/03/19 18:36:05;;;;;;;20.23;17.45;;;11.50;99.90;;;;;;6198114;23;20027;-95
2023/03/19 18:38:32;;;;;;;22.17;17.73;;;11.40;99.90;;;;;;6196317;23;20004;-93
2023/03/19 18:40:59;;;;;;;21.02;18.70;;;11.40;99.90;;;;;;6197872;23;20057;-94
2023/03/19 18:43:35;;;;;;;23.63;17.85;;;11.30;99.90;;;;;;6196372;22;20012;-93
2023/03/19 18:50:23;;;;;;;29.20;19.52;;;11.20;99.90;;;;;;6125126;23;20009;-94
2023/03/19 18:56:25;;;;;;;26.70;20.00;;;11.00;99.90;;;;;;6329481;22;20022;-94
2023/03/19 18:58:54;;;;;;;27.48;19.88;;;11.00;99.90;;;;;;6286964;22;20007;-93
2023/03/19 19:01:21;;;;;;;29.83;20.88;;;11.00;99.90;;;;;;6287143;22;19999;-89
2023/03/19 19:03:48;;;;;;;40.72;25.42;;;10.90;99.90;;;;;;6281698;22;20008;-92
2023/03/19 19:06:24;;;;;;;35.70;23.65;;;10.90;99.90;;;;;;6256337;22;20430;-93
2023/03/19 19:08:51;;;;;;;36.50;23.88;;;10.90;99.90;;;;;;6256714;22;20310;-92
2023/03/19 19:11:20;;;;;;;40.22;24.08;;;10.80;99.90;;;;;;6256160;22;20085;-92
2023/03/19 19:13:55;;;;;;;35.63;23.85;;;10.80;99.90;;;;;;6256172;22;20090;-91
2023/03/19 19:16:30;;;;;;;36.72;25.42;;;10.70;99.90;;;;;;6257732;22;20017;-91
2023/03/19 19:18:57;;;;;;;49.38;28.27;;;10.60;99.90;;;;;;6256171;22;20008;-93
2023/03/19 19:21:24;;;;;;;52.47;30.05;;;10.50;99.90;;;;;;6256711;22;20011;-92
2023/03/19 19:23:50;;;;;;;42.70;28.70;;;10.50;99.90;;;;;;6255755;22;20082;-93
2023/03/19 19:26:26;;;;;;;47.50;28.23;;;10.40;99.90;;;;;;6282160;22;20003;-94
2023/03/19 19:28:56;;;;;;;44.10;26.58;;;10.40;99.90;;;;;;6256192;22;20432;-92
2023/03/19 19:31:28;;;;;;;44.92;28.00;;;10.40;99.90;;;;;;6255668;22;20026;-91
2023/03/19 19:33:55;;;;;;;44.88;25.70;;;10.40;99.90;;;;;;6255624;22;20016;-93
2023/03/19 19:36:24;;;;;;;41.33;26.30;;;10.40;99.90;;;;;;6256365;22;20007;-93
2023/03/19 19:38:51;;;;;;;43.58;26.15;;;10.40;99.90;;;;;;6282517;22;20010;-91
2023/03/19 19:41:22;;;;;;;48.25;26.33;;;10.30;99.90;;;;;;6256193;22;20030;-91
2023/03/19 19:43:51;;;;;;;42.65;26.17;;;10.30;99.90;;;;;;6256304;22;20428;-94
2023/03/19 19:46:33;;;;;;;46.17;29.27;;;10.20;99.90;;;;;;6281310;22;20011;-93
2023/03/19 19:49:26;;;;;;;48.10;29.55;;;10.20;99.90;;;;;;6257580;22;20337;-94
2023/03/19 19:51:55;;;;;;;51.65;31.40;;;10.10;99.90;;;;;;6256130;22;20011;-93
2023/03/19 19:54:23;;;;;;;50.03;30.67;;;10.10;99.90;;;;;;6255825;22;20042;-92
2023/03/19 19:56:51;;;;;;;52.03;29.15;;;10.10;99.90;;;;;;6255951;22;20039;-93
2023/03/19 19:59:18;;;;;;;44.80;28.63;;;10.00;99.90;;;;;;6281916;22;20056;-92
2023/03/19 20:01:44;;;;;;;44.35;27.50;;;10.00;99.90;;;;;;6255997;22;20082;-92
2023/03/19 20:04:14;;;;;;;45.65;27.02;;;9.90;99.90;;;;;;6257186;22;20309;-94
2023/03/19 20:06:41;;;;;;;36.60;25.35;;;9.90;99.90;;;;;;6257815;22;20011;-93
2023/03/19 20:09:15;;;;;;;38.38;25.77;;;9.80;99.90;;;;;;6282085;22;20027;-91
2023/03/19 20:11:47;;;;;;;50.55;27.00;;;9.80;99.90;;;;;;6283814;22;20025;-92
2023/03/19 20:14:23;;;;;;;45.60;26.33;;;9.80;99.90;;;;;;6284641;22;20015;-93
2023/03/19 20:30:52;;;;;;;38.00;25.00;;;9.70;99.90;;;;;;6311161;22;20027;31
2023/03/19 20:36:49;;;;;;;38.70;24.77;;;9.60;99.90;;;;;;6154407;23;20028;-94
2023/03/19 20:39:27;;;;;;;40.25;24.95;;;9.60;99.90;;;;;;6193894;23;20148;-93
2023/03/19 20:41:54;;;;;;;45.15;25.38;;;9.60;99.90;;;;;;6167504;23;20004;-94
2023/03/19 20:44:25;;;;;;;39.65;25.13;;;9.60;99.90;;;;;;6186476;23;20036;-94
2023/03/19 20:47:08;;;;;;;40.38;25.27;;;9.60;99.90;;;;;;6164098;23;20005;-95
2023/03/19 21:09:25;;;;;;;45.50;29.55;;;9.30;99.90;;;;;;6257868;22;20033;-94
2023/03/19 21:12:29;;;;;;;46.42;28.75;;;9.30;99.90;;;;;;6259953;22;20075;-95
2023/03/19 21:22:38;;;;;;;45.08;29.60;;;9.20;99.90;;;;;;6127334;23;20030;-93
2023/03/19 21:25:15;;;;;;;51.22;31.50;;;9.20;99.90;;;;;;6126432;23;20010;-95
2023/03/19 21:31:25;;;;;;;42.55;29.70;;;9.20;99.90;;;;;;6311343;22;20027;-94
2023/03/19 21:34:36;;;;;;;52.88;32.65;;;9.10;99.90;;;;;;6131987;23;20017;-95
2023/03/19 21:37:12;;;;;;;46.50;30.52;;;9.10;99.90;;;;;;6187643;22;20015;-93
2023/03/19 21:39:38;;;;;;;49.08;32.80;;;9.00;99.90;;;;;;6278406;22;20010;-92
2023/03/19 21:42:37;;;;;;;52.63;32.28;;;9.00;99.90;;;;;;6218279;22;20027;-94